sensor_id;sensor_type;location;lat;lon;timestamp;P1;durP1;ratioP1;P2;durP2;ratioP2
51475;SDS011;37554;50.362;7.568;2023-04-24T00:02:03;0.57;;;0.30;;
51475;SDS011;37554;50.362;7.568;2023-04-24T00:04:31;0.63;;;0.45;;
51475;SDS011;37554;50.362;7.568;2023-04-24T00:06:57;0.93;;;0.40;;
51475;SDS011;37554;50.362;7.568;2023-04-24T00:09:25;1.02;;;0.30;;
51475;SDS011;37554;50.362;7.568;2023-04-24T00:11:51;0.57;;;0.30;;
51475;SDS011;37554;50.362;7.568;2023-04-24T00:14:17;0.55;;;0.25;;
51475;SDS011;37554;50.362;7.568;2023-04-24T00:16:42;0.32;;;0.30;;
51475;SDS011;37554;50.362;7.568;2023-04-24T00:19:08;0.52;;;0.25;;
51475;SDS011;37554;50.362;7.568;2023-04-24T00:21:34;0.60;;;0.30;;
51475;SDS011;37554;50.362;7.568;2023-04-24T00:24:00;0.70;;;0.15;;
51475;SDS011;37554;50.362;7.568;2023-04-24T00:26:25;0.40;;;0.20;;
51475;SDS011;37554;50.362;7.568;2023-04-24T00:28:51;0.55;;;0.30;;
51475;SDS011;37554;50.362;7.568;2023-04-24T00:31:16;0.28;;;0.20;;
51475;SDS011;37554;50.362;7.568;2023-04-24T00:33:42;0.20;;;0.10;;
51475;SDS011;37554;50.362;7.568;2023-04-24T00:36:08;0.45;;;0.20;;
51475;SDS011;37554;50.362;7.568;2023-04-24T00:38:33;0.17;;;0.17;;
51475;SDS011;37554;50.362;7.568;2023-04-24T00:40:59;0.35;;;0.20;;
51475;SDS011;37554;50.362;7.568;2023-04-24T00:43:25;0.30;;;0.10;;
51475;SDS011;37554;50.362;7.568;2023-04-24T00:45:51;1.75;;;0.20;;
51475;SDS011;37554;50.362;7.568;2023-04-24T00:48:16;0.50;;;0.20;;
51475;SDS011;37554;50.362;7.568;2023-04-24T00:50:42;0.13;;;0.10;;
51475;SDS011;37554;50.362;7.568;2023-04-24T00:53:08;1.13;;;0.10;;
51475;SDS011;37554;50.362;7.568;2023-04-24T00:55:34;0.10;;;0.10;;
51475;SDS011;37554;50.362;7.568;2023-04-24T00:58:02;0.50;;;0.10;;
51475;SDS011;37554;50.362;7.568;2023-04-24T01:00:28;0.57;;;0.20;;
51475;SDS011;37554;50.362;7.568;2023-04-24T01:02:55;0.30;;;0.10;;
51475;SDS011;37554;50.362;7.568;2023-04-24T01:05:24;0.20;;;0.10;;
51475;SDS011;37554;50.362;7.568;2023-04-24T01:07:50;0.17;;;0.17;;
51475;SDS011;37554;50.362;7.568;2023-04-24T01:10:16;0.20;;;0.13;;
51475;SDS011;37554;50.362;7.568;2023-04-24T01:12:42;0.43;;;0.10;;
51475;SDS011;37554;50.362;7.568;2023-04-24T01:15:08;0.15;;;0.10;;
51475;SDS011;37554;50.362;7.568;2023-04-24T01:17:34;0.30;;;0.10;;
51475;SDS011;37554;50.362;7.568;2023-04-24T01:20:00;0.68;;;0.10;;
51475;SDS011;37554;50.362;7.568;2023-04-24T01:22:29;0.35;;;0.17;;
51475;SDS011;37554;50.362;7.568;2023-04-24T01:24:54;0.10;;;0.10;;
51475;SDS011;37554;50.362;7.568;2023-04-24T01:27:20;0.13;;;0.10;;
51475;SDS011;37554;50.362;7.568;2023-04-24T01:29:46;1.65;;;0.17;;
51475;SDS011;37554;50.362;7.568;2023-04-24T01:32:14;0.98;;;0.10;;
51475;SDS011;37554;50.362;7.568;2023-04-24T01:34:40;0.28;;;0.10;;
51475;SDS011;37554;50.362;7.568;2023-04-24T01:37:06;0.30;;;0.10;;
51475;SDS011;37554;50.362;7.568;2023-04-24T01:39:32;0.00;;;0.00;;
51475;SDS011;37554;50.362;7.568;2023-04-24T01:41:58;0.10;;;0.10;;
51475;SDS011;37554;50.362;7.568;2023-04-24T01:44:25;0.47;;;0.10;;
51475;SDS011;37554;50.362;7.568;2023-04-24T01:46:51;0.10;;;0.10;;
51475;SDS011;37554;50.362;7.568;2023-04-24T01:49:19;0.50;;;0.05;;
51475;SDS011;37554;50.362;7.568;2023-04-24T01:51:44;0.13;;;0.10;;
51475;SDS011;37554;50.362;7.568;2023-04-24T01:54:10;0.10;;;0.10;;
51475;SDS011;37554;50.362;7.568;2023-04-24T01:56:36;0.22;;;0.10;;
51475;SDS011;37554;50.362;7.568;2023-04-24T01:59:03;0.28;;;0.10;;
51475;SDS011;37554;50.362;7.568;2023-04-24T02:01:35;0.13;;;0.10;;
51475;SDS011;37554;50.362;7.568;2023-04-24T02:04:02;0.43;;;0.10;;
51475;SDS011;37554;50.362;7.568;2023-04-24T02:06:28;0.10;;;0.10;;
51475;SDS011;37554;50.362;7.568;2023-04-24T02:08:56;0.82;;;0.10;;
51475;SDS011;37554;50.362;7.568;2023-04-24T02:11:22;0.35;;;0.10;;
51475;SDS011;37554;50.362;7.568;2023-04-24T02:13:48;0.20;;;0.10;;
51475;SDS011;37554;50.362;7.568;2023-04-24T02:16:14;0.10;;;0.10;;
51475;SDS011;37554;50.362;7.568;2023-04-24T02:18:39;0.82;;;0.10;;
51475;SDS011;37554;50.362;7.568;2023-04-24T02:21:05;0.00;;;0.00;;
51475;SDS011;37554;50.362;7.568;2023-04-24T02:23:30;0.10;;;0.10;;
51475;SDS011;37554;50.362;7.568;2023-04-24T02:25:56;0.28;;;0.10;;
51475;SDS011;37554;50.362;7.568;2023-04-24T02:28:21;0.47;;;0.20;;
51475;SDS011;37554;50.362;7.568;2023-04-24T02:30:47;0.40;;;0.15;;
51475;SDS011;37554;50.362;7.568;2023-04-24T02:33:12;0.10;;;0.10;;
51475;SDS011;37554;50.362;7.568;2023-04-24T02:35:38;0.28;;;0.20;;
51475;SDS011;37554;50.362;7.568;2023-04-24T02:38:04;0.75;;;0.20;;
51475;SDS011;37554;50.362;7.568;2023-04-24T02:40:29;0.40;;;0.20;;
51475;SDS011;37554;50.362;7.568;2023-04-24T02:42:55;0.47;;;0.10;;
51475;SDS011;37554;50.362;7.568;2023-04-24T02:45:21;0.20;;;0.10;;
51475;SDS011;37554;50.362;7.568;2023-04-24T02:47:46;0.45;;;0.20;;
51475;SDS011;37554;50.362;7.568;2023-04-24T02:50:12;0.50;;;0.20;;
51475;SDS011;37554;50.362;7.568;2023-04-24T02:52:38;0.32;;;0.20;;
51475;SDS011;37554;50.362;7.568;2023-04-24T02:55:04;0.30;;;0.17;;
51475;SDS011;37554;50.362;7.568;2023-04-24T02:57:30;0.20;;;0.20;;
51475;SDS011;37554;50.362;7.568;2023-04-24T02:59:56;0.30;;;0.20;;
51475;SDS011;37554;50.362;7.568;2023-04-24T03:02:21;0.20;;;0.10;;
51475;SDS011;37554;50.362;7.568;2023-04-24T03:04:47;0.30;;;0.20;;
51475;SDS011;37554;50.362;7.568;2023-04-24T03:07:13;0.30;;;0.10;;
51475;SDS011;37554;50.362;7.568;2023-04-24T03:09:39;0.35;;;0.20;;
51475;SDS011;37554;50.362;7.568;2023-04-24T03:12:05;0.10;;;0.10;;
51475;SDS011;37554;50.362;7.568;2023-04-24T03:14:31;0.10;;;0.10;;
51475;SDS011;37554;50.362;7.568;2023-04-24T03:16:57;0.43;;;0.20;;
51475;SDS011;37554;50.362;7.568;2023-04-24T03:19:23;0.28;;;0.15;;
51475;SDS011;37554;50.362;7.568;2023-04-24T03:21:49;0.57;;;0.10;;
51475;SDS011;37554;50.362;7.568;2023-04-24T03:24:14;0.82;;;0.20;;
51475;SDS011;37554;50.362;7.568;2023-04-24T03:26:40;0.80;;;0.20;;
51475;SDS011;37554;50.362;7.568;2023-04-24T03:29:06;0.68;;;0.20;;
51475;SDS011;37554;50.362;7.568;2023-04-24T03:31:32;0.70;;;0.30;;
51475;SDS011;37554;50.362;7.568;2023-04-24T03:33:57;0.43;;;0.22;;
51475;SDS011;37554;50.362;7.568;2023-04-24T03:36:23;1.08;;;0.20;;
51475;SDS011;37554;50.362;7.568;2023-04-24T03:38:48;0.13;;;0.10;;
51475;SDS011;37554;50.362;7.568;2023-04-24T03:41:14;0.38;;;0.30;;
51475;SDS011;37554;50.362;7.568;2023-04-24T03:43:40;0.40;;;0.30;;
51475;SDS011;37554;50.362;7.568;2023-04-24T03:46:06;1.33;;;0.28;;
51475;SDS011;37554;50.362;7.568;2023-04-24T03:48:34;0.55;;;0.28;;
51475;SDS011;37554;50.362;7.568;2023-04-24T03:51:00;0.30;;;0.20;;
51475;SDS011;37554;50.362;7.568;2023-04-24T03:53:25;0.85;;;0.40;;
51475;SDS011;37554;50.362;7.568;2023-04-24T03:55:52;0.30;;;0.20;;
51475;SDS011;37554;50.362;7.568;2023-04-24T03:58:18;0.82;;;0.20;;
51475;SDS011;37554;50.362;7.568;2023-04-24T04:00:43;0.30;;;0.20;;
51475;SDS011;37554;50.362;7.568;2023-04-24T04:03:09;0.47;;;0.30;;
51475;SDS011;37554;50.362;7.568;2023-04-24T04:05:35;1.00;;;0.40;;
51475;SDS011;37554;50.362;7.568;2023-04-24T04:08:01;1.08;;;0.40;;
51475;SDS011;37554;50.362;7.568;2023-04-24T04:10:27;0.45;;;0.40;;
51475;SDS011;37554;50.362;7.568;2023-04-24T04:12:52;0.57;;;0.30;;
51475;SDS011;37554;50.362;7.568;2023-04-24T04:15:18;0.75;;;0.40;;
51475;SDS011;37554;50.362;7.568;2023-04-24T04:17:43;0.45;;;0.40;;
51475;SDS011;37554;50.362;7.568;2023-04-24T04:20:10;0.60;;;0.40;;
51475;SDS011;37554;50.362;7.568;2023-04-24T04:22:36;0.30;;;0.30;;
51475;SDS011;37554;50.362;7.568;2023-04-24T04:25:03;0.35;;;0.32;;
51475;SDS011;37554;50.362;7.568;2023-04-24T04:27:29;0.43;;;0.40;;
51475;SDS011;37554;50.362;7.568;2023-04-24T04:29:57;0.40;;;0.20;;
51475;SDS011;37554;50.362;7.568;2023-04-24T04:32:29;0.60;;;0.38;;
51475;SDS011;37554;50.362;7.568;2023-04-24T04:34:59;0.77;;;0.50;;
51475;SDS011;37554;50.362;7.568;2023-04-24T04:37:28;1.27;;;0.40;;
51475;SDS011;37554;50.362;7.568;2023-04-24T04:39:58;0.43;;;0.28;;
51475;SDS011;37554;50.362;7.568;2023-04-24T04:42:24;0.73;;;0.47;;
51475;SDS011;37554;50.362;7.568;2023-04-24T04:44:51;0.95;;;0.40;;
51475;SDS011;37554;50.362;7.568;2023-04-24T04:47:18;1.75;;;0.40;;
51475;SDS011;37554;50.362;7.568;2023-04-24T04:49:50;1.85;;;0.40;;
51475;SDS011;37554;50.362;7.568;2023-04-24T04:52:17;0.98;;;0.30;;
51475;SDS011;37554;50.362;7.568;2023-04-24T04:54:43;0.85;;;0.40;;
51475;SDS011;37554;50.362;7.568;2023-04-24T04:57:08;1.10;;;0.40;;
51475;SDS011;37554;50.362;7.568;2023-04-24T04:59:34;0.52;;;0.40;;
51475;SDS011;37554;50.362;7.568;2023-04-24T05:02:00;0.75;;;0.40;;
51475;SDS011;37554;50.362;7.568;2023-04-24T05:04:26;0.60;;;0.47;;
51475;SDS011;37554;50.362;7.568;2023-04-24T05:06:51;0.60;;;0.40;;
51475;SDS011;37554;50.362;7.568;2023-04-24T05:09:17;0.63;;;0.50;;
51475;SDS011;37554;50.362;7.568;2023-04-24T05:11:43;0.55;;;0.40;;
51475;SDS011;37554;50.362;7.568;2023-04-24T05:14:09;0.75;;;0.40;;
51475;SDS011;37554;50.362;7.568;2023-04-24T05:16:35;0.35;;;0.35;;
51475;SDS011;37554;50.362;7.568;2023-04-24T05:19:02;0.75;;;0.32;;
51475;SDS011;37554;50.362;7.568;2023-04-24T05:21:27;1.35;;;0.50;;
51475;SDS011;37554;50.362;7.568;2023-04-24T05:23:53;0.63;;;0.40;;
51475;SDS011;37554;50.362;7.568;2023-04-24T05:26:18;0.40;;;0.40;;
51475;SDS011;37554;50.362;7.568;2023-04-24T05:28:44;0.77;;;0.50;;
51475;SDS011;37554;50.362;7.568;2023-04-24T05:31:10;0.50;;;0.38;;
51475;SDS011;37554;50.362;7.568;2023-04-24T05:33:37;0.40;;;0.30;;
51475;SDS011;37554;50.362;7.568;2023-04-24T05:36:02;1.20;;;0.55;;
51475;SDS011;37554;50.362;7.568;2023-04-24T05:38:30;1.20;;;0.63;;
51475;SDS011;37554;50.362;7.568;2023-04-24T05:40:56;1.90;;;1.02;;
51475;SDS011;37554;50.362;7.568;2023-04-24T05:43:21;2.08;;;1.35;;
51475;SDS011;37554;50.362;7.568;2023-04-24T05:45:47;1.67;;;1.23;;
51475;SDS011;37554;50.362;7.568;2023-04-24T05:48:12;1.95;;;1.50;;
51475;SDS011;37554;50.362;7.568;2023-04-24T05:50:38;3.25;;;1.80;;
51475;SDS011;37554;50.362;7.568;2023-04-24T05:53:04;2.03;;;1.80;;
51475;SDS011;37554;50.362;7.568;2023-04-24T05:55:32;3.17;;;1.90;;
51475;SDS011;37554;50.362;7.568;2023-04-24T05:57:57;1.83;;;1.73;;
51475;SDS011;37554;50.362;7.568;2023-04-24T06:00:24;2.13;;;1.50;;
51475;SDS011;37554;50.362;7.568;2023-04-24T06:02:50;1.95;;;1.00;;
51475;SDS011;37554;50.362;7.568;2023-04-24T06:05:17;1.50;;;1.13;;
51475;SDS011;37554;50.362;7.568;2023-04-24T06:07:43;1.45;;;0.82;;
51475;SDS011;37554;50.362;7.568;2023-04-24T06:10:12;1.02;;;0.80;;
51475;SDS011;37554;50.362;7.568;2023-04-24T06:12:38;1.40;;;1.00;;
51475;SDS011;37554;50.362;7.568;2023-04-24T06:15:04;0.70;;;0.70;;
51475;SDS011;37554;50.362;7.568;2023-04-24T06:17:31;1.45;;;0.60;;
51475;SDS011;37554;50.362;7.568;2023-04-24T06:19:57;1.20;;;0.70;;
51475;SDS011;37554;50.362;7.568;2023-04-24T06:22:23;1.70;;;0.90;;
51475;SDS011;37554;50.362;7.568;2023-04-24T06:24:48;1.10;;;0.73;;
51475;SDS011;37554;50.362;7.568;2023-04-24T06:27:14;0.90;;;0.70;;
51475;SDS011;37554;50.362;7.568;2023-04-24T06:29:40;2.83;;;0.82;;
51475;SDS011;37554;50.362;7.568;2023-04-24T06:32:05;1.25;;;0.95;;
51475;SDS011;37554;50.362;7.568;2023-04-24T06:34:31;0.95;;;0.82;;
51475;SDS011;37554;50.362;7.568;2023-04-24T06:36:58;0.93;;;0.80;;
51475;SDS011;37554;50.362;7.568;2023-04-24T06:39:25;1.45;;;1.08;;
51475;SDS011;37554;50.362;7.568;2023-04-24T06:41:50;1.50;;;0.90;;
51475;SDS011;37554;50.362;7.568;2023-04-24T06:44:16;1.50;;;1.00;;
51475;SDS011;37554;50.362;7.568;2023-04-24T06:46:42;1.13;;;0.85;;
51475;SDS011;37554;50.362;7.568;2023-04-24T06:49:08;2.30;;;0.98;;
51475;SDS011;37554;50.362;7.568;2023-04-24T06:51:34;1.35;;;0.80;;
51475;SDS011;37554;50.362;7.568;2023-04-24T06:54:02;1.58;;;0.93;;
51475;SDS011;37554;50.362;7.568;2023-04-24T06:56:28;0.68;;;0.60;;
51475;SDS011;37554;50.362;7.568;2023-04-24T06:58:56;1.52;;;0.90;;
51475;SDS011;37554;50.362;7.568;2023-04-24T07:01:22;1.40;;;0.82;;
51475;SDS011;37554;50.362;7.568;2023-04-24T07:03:48;0.85;;;0.77;;
51475;SDS011;37554;50.362;7.568;2023-04-24T07:06:14;1.02;;;0.60;;
51475;SDS011;37554;50.362;7.568;2023-04-24T07:08:41;1.33;;;0.70;;
51475;SDS011;37554;50.362;7.568;2023-04-24T07:11:07;1.52;;;0.70;;
51475;SDS011;37554;50.362;7.568;2023-04-24T07:13:32;1.05;;;0.73;;
51475;SDS011;37554;50.362;7.568;2023-04-24T07:16:00;1.17;;;0.55;;
51475;SDS011;37554;50.362;7.568;2023-04-24T07:18:25;1.30;;;0.80;;
51475;SDS011;37554;50.362;7.568;2023-04-24T07:20:54;0.82;;;0.80;;
51475;SDS011;37554;50.362;7.568;2023-04-24T07:23:20;0.95;;;0.73;;
51475;SDS011;37554;50.362;7.568;2023-04-24T07:25:46;0.75;;;0.65;;
51475;SDS011;37554;50.362;7.568;2023-04-24T07:28:12;1.77;;;0.70;;
51475;SDS011;37554;50.362;7.568;2023-04-24T07:30:37;1.55;;;0.70;;
51475;SDS011;37554;50.362;7.568;2023-04-24T07:33:07;0.80;;;0.70;;
51475;SDS011;37554;50.362;7.568;2023-04-24T07:35:32;2.83;;;1.48;;
51475;SDS011;37554;50.362;7.568;2023-04-24T07:37:59;1.50;;;1.35;;
51475;SDS011;37554;50.362;7.568;2023-04-24T07:40:24;1.70;;;1.60;;
51475;SDS011;37554;50.362;7.568;2023-04-24T07:42:51;2.60;;;2.05;;
51475;SDS011;37554;50.362;7.568;2023-04-24T07:45:16;2.05;;;1.65;;
51475;SDS011;37554;50.362;7.568;2023-04-24T07:47:42;2.00;;;1.67;;
51475;SDS011;37554;50.362;7.568;2023-04-24T07:50:11;1.73;;;1.63;;
51475;SDS011;37554;50.362;7.568;2023-04-24T07:52:37;1.73;;;1.63;;
51475;SDS011;37554;50.362;7.568;2023-04-24T07:55:03;1.42;;;1.02;;
51475;SDS011;37554;50.362;7.568;2023-04-24T07:57:29;1.15;;;0.80;;
51475;SDS011;37554;50.362;7.568;2023-04-24T07:59:55;1.00;;;0.77;;
51475;SDS011;37554;50.362;7.568;2023-04-24T08:02:21;1.95;;;0.60;;
51475;SDS011;37554;50.362;7.568;2023-04-24T08:04:51;1.17;;;0.80;;
51475;SDS011;37554;50.362;7.568;2023-04-24T08:07:20;1.33;;;0.55;;
51475;SDS011;37554;50.362;7.568;2023-04-24T08:09:46;1.25;;;0.75;;
51475;SDS011;37554;50.362;7.568;2023-04-24T08:12:11;1.30;;;0.50;;
51475;SDS011;37554;50.362;7.568;2023-04-24T08:14:37;1.75;;;0.70;;
51475;SDS011;37554;50.362;7.568;2023-04-24T08:17:02;2.20;;;0.52;;
51475;SDS011;37554;50.362;7.568;2023-04-24T08:19:28;0.57;;;0.40;;
51475;SDS011;37554;50.362;7.568;2023-04-24T08:21:54;1.98;;;0.50;;
51475;SDS011;37554;50.362;7.568;2023-04-24T08:24:20;0.55;;;0.40;;
51475;SDS011;37554;50.362;7.568;2023-04-24T08:26:46;0.82;;;0.52;;
51475;SDS011;37554;50.362;7.568;2023-04-24T08:29:15;1.00;;;0.50;;
51475;SDS011;37554;50.362;7.568;2023-04-24T08:31:40;2.00;;;0.70;;
51475;SDS011;37554;50.362;7.568;2023-04-24T08:34:06;0.93;;;0.47;;
51475;SDS011;37554;50.362;7.568;2023-04-24T08:36:32;1.65;;;0.50;;
51475;SDS011;37554;50.362;7.568;2023-04-24T08:38:58;0.47;;;0.47;;
51475;SDS011;37554;50.362;7.568;2023-04-24T08:41:24;0.63;;;0.50;;
51475;SDS011;37554;50.362;7.568;2023-04-24T08:43:51;1.85;;;0.60;;
51475;SDS011;37554;50.362;7.568;2023-04-24T08:46:17;1.75;;;0.40;;
51475;SDS011;37554;50.362;7.568;2023-04-24T08:48:44;0.75;;;0.50;;
51475;SDS011;37554;50.362;7.568;2023-04-24T08:51:10;0.85;;;0.43;;
51475;SDS011;37554;50.362;7.568;2023-04-24T08:53:37;0.93;;;0.43;;
51475;SDS011;37554;50.362;7.568;2023-04-24T08:56:03;1.85;;;0.43;;
51475;SDS011;37554;50.362;7.568;2023-04-24T08:58:29;0.50;;;0.40;;
51475;SDS011;37554;50.362;7.568;2023-04-24T09:00:56;0.75;;;0.40;;
51475;SDS011;37554;50.362;7.568;2023-04-24T09:03:23;0.40;;;0.30;;
51475;SDS011;37554;50.362;7.568;2023-04-24T09:05:49;0.88;;;0.50;;
51475;SDS011;37554;50.362;7.568;2023-04-24T09:08:16;1.65;;;0.50;;
51475;SDS011;37554;50.362;7.568;2023-04-24T09:10:43;1.08;;;0.45;;
51475;SDS011;37554;50.362;7.568;2023-04-24T09:13:09;1.08;;;0.45;;
51475;SDS011;37554;50.362;7.568;2023-04-24T09:15:36;0.55;;;0.30;;
51475;SDS011;37554;50.362;7.568;2023-04-24T09:18:02;0.32;;;0.30;;
51475;SDS011;37554;50.362;7.568;2023-04-24T09:20:28;0.43;;;0.30;;
51475;SDS011;37554;50.362;7.568;2023-04-24T09:22:54;1.65;;;0.40;;
51475;SDS011;37554;50.362;7.568;2023-04-24T09:25:25;1.13;;;0.40;;
51475;SDS011;37554;50.362;7.568;2023-04-24T09:28:01;0.57;;;0.40;;
51475;SDS011;37554;50.362;7.568;2023-04-24T09:30:28;0.32;;;0.32;;
51475;SDS011;37554;50.362;7.568;2023-04-24T09:33:10;0.30;;;0.30;;
51475;SDS011;37554;50.362;7.568;2023-04-24T09:35:40;0.50;;;0.30;;
51475;SDS011;37554;50.362;7.568;2023-04-24T09:38:07;0.30;;;0.30;;
51475;SDS011;37554;50.362;7.568;2023-04-24T09:40:33;0.47;;;0.30;;
51475;SDS011;37554;50.362;7.568;2023-04-24T09:42:59;1.38;;;0.40;;
51475;SDS011;37554;50.362;7.568;2023-04-24T09:45:27;0.30;;;0.30;;
51475;SDS011;37554;50.362;7.568;2023-04-24T09:47:59;0.40;;;0.40;;
51475;SDS011;37554;50.362;7.568;2023-04-24T09:50:25;0.30;;;0.30;;
51475;SDS011;37554;50.362;7.568;2023-04-24T09:53:04;0.63;;;0.40;;
51475;SDS011;37554;50.362;7.568;2023-04-24T09:55:30;0.40;;;0.40;;
51475;SDS011;37554;50.362;7.568;2023-04-24T09:57:57;0.63;;;0.40;;
51475;SDS011;37554;50.362;7.568;2023-04-24T10:00:26;0.43;;;0.30;;
51475;SDS011;37554;50.362;7.568;2023-04-24T10:05:27;0.70;;;0.50;;
51475;SDS011;37554;50.362;7.568;2023-04-24T10:08:05;0.57;;;0.40;;
51475;SDS011;37554;50.362;7.568;2023-04-24T10:10:33;0.93;;;0.55;;
51475;SDS011;37554;50.362;7.568;2023-04-24T10:13:00;0.85;;;0.40;;
51475;SDS011;37554;50.362;7.568;2023-04-24T10:15:26;0.30;;;0.20;;
51475;SDS011;37554;50.362;7.568;2023-04-24T10:17:52;1.27;;;0.40;;
51475;SDS011;37554;50.362;7.568;2023-04-24T10:20:18;0.40;;;0.40;;
51475;SDS011;37554;50.362;7.568;2023-04-24T10:22:49;0.98;;;0.40;;
51475;SDS011;37554;50.362;7.568;2023-04-24T10:25:16;1.25;;;0.50;;
51475;SDS011;37554;50.362;7.568;2023-04-24T10:27:47;0.35;;;0.35;;
51475;SDS011;37554;50.362;7.568;2023-04-24T10:30:14;0.45;;;0.30;;
51475;SDS011;37554;50.362;7.568;2023-04-24T10:32:41;0.40;;;0.40;;
51475;SDS011;37554;50.362;7.568;2023-04-24T10:35:07;0.35;;;0.30;;
51475;SDS011;37554;50.362;7.568;2023-04-24T10:37:35;1.30;;;0.50;;
51475;SDS011;37554;50.362;7.568;2023-04-24T10:40:06;0.50;;;0.50;;
51475;SDS011;37554;50.362;7.568;2023-04-24T10:42:33;0.82;;;0.60;;
51475;SDS011;37554;50.362;7.568;2023-04-24T10:44:59;0.60;;;0.30;;
51475;SDS011;37554;50.362;7.568;2023-04-24T10:47:29;0.40;;;0.40;;
51475;SDS011;37554;50.362;7.568;2023-04-24T10:50:07;0.50;;;0.50;;
51475;SDS011;37554;50.362;7.568;2023-04-24T10:52:47;0.70;;;0.52;;
51475;SDS011;37554;50.362;7.568;2023-04-24T10:55:16;0.50;;;0.40;;
51475;SDS011;37554;50.362;7.568;2023-04-24T10:58:02;1.17;;;0.60;;
51475;SDS011;37554;50.362;7.568;2023-04-24T11:00:29;0.75;;;0.43;;
51475;SDS011;37554;50.362;7.568;2023-04-24T11:02:55;0.85;;;0.65;;
51475;SDS011;37554;50.362;7.568;2023-04-24T11:05:22;1.08;;;0.70;;
51475;SDS011;37554;50.362;7.568;2023-04-24T11:08:14;0.95;;;0.65;;
51475;SDS011;37554;50.362;7.568;2023-04-24T11:10:47;1.17;;;0.70;;
51475;SDS011;37554;50.362;7.568;2023-04-24T11:13:22;0.70;;;0.60;;
51475;SDS011;37554;50.362;7.568;2023-04-24T11:18:39;0.82;;;0.70;;
51475;SDS011;37554;50.362;7.568;2023-04-24T11:21:16;1.50;;;0.77;;
51475;SDS011;37554;50.362;7.568;2023-04-24T11:23:42;2.30;;;0.90;;
51475;SDS011;37554;50.362;7.568;2023-04-24T11:26:10;1.17;;;0.82;;
51475;SDS011;37554;50.362;7.568;2023-04-24T11:28:48;1.67;;;1.02;;
51475;SDS011;37554;50.362;7.568;2023-04-24T11:34:11;1.10;;;0.85;;
51475;SDS011;37554;50.362;7.568;2023-04-24T11:36:39;1.45;;;1.20;;
51475;SDS011;37554;50.362;7.568;2023-04-24T11:39:05;0.98;;;0.80;;
51475;SDS011;37554;50.362;7.568;2023-04-24T11:41:31;1.90;;;1.00;;
51475;SDS011;37554;50.362;7.568;2023-04-24T11:43:58;2.75;;;0.93;;
51475;SDS011;37554;50.362;7.568;2023-04-24T11:46:28;1.55;;;0.90;;
51475;SDS011;37554;50.362;7.568;2023-04-24T11:48:55;1.63;;;1.15;;
51475;SDS011;37554;50.362;7.568;2023-04-24T11:51:24;1.58;;;1.33;;
51475;SDS011;37554;50.362;7.568;2023-04-24T11:53:51;1.45;;;1.20;;
51475;SDS011;37554;50.362;7.568;2023-04-24T11:56:18;1.40;;;0.82;;
51475;SDS011;37554;50.362;7.568;2023-04-24T11:58:44;1.20;;;0.98;;
51475;SDS011;37554;50.362;7.568;2023-04-24T12:01:11;1.67;;;1.15;;
51475;SDS011;37554;50.362;7.568;2023-04-24T12:03:37;1.48;;;1.00;;
51475;SDS011;37554;50.362;7.568;2023-04-24T12:06:06;1.13;;;1.00;;
51475;SDS011;37554;50.362;7.568;2023-04-24T12:08:35;1.92;;;1.10;;
51475;SDS011;37554;50.362;7.568;2023-04-24T12:11:05;1.33;;;1.17;;
51475;SDS011;37554;50.362;7.568;2023-04-24T12:13:32;1.40;;;1.00;;
51475;SDS011;37554;50.362;7.568;2023-04-24T12:15:59;1.38;;;0.95;;
51475;SDS011;37554;50.362;7.568;2023-04-24T12:18:26;1.60;;;1.05;;
51475;SDS011;37554;50.362;7.568;2023-04-24T12:20:52;2.97;;;0.90;;
51475;SDS011;37554;50.362;7.568;2023-04-24T12:23:34;2.35;;;1.00;;
51475;SDS011;37554;50.362;7.568;2023-04-24T12:26:05;2.25;;;1.30;;
51475;SDS011;37554;50.362;7.568;2023-04-24T12:28:35;1.40;;;1.10;;
51475;SDS011;37554;50.362;7.568;2023-04-24T12:31:01;1.75;;;1.30;;
51475;SDS011;37554;50.362;7.568;2023-04-24T12:33:27;1.65;;;1.15;;
51475;SDS011;37554;50.362;7.568;2023-04-24T12:35:54;2.13;;;1.23;;
51475;SDS011;37554;50.362;7.568;2023-04-24T12:38:23;1.17;;;1.00;;
51475;SDS011;37554;50.362;7.568;2023-04-24T12:41:07;1.77;;;1.10;;
51475;SDS011;37554;50.362;7.568;2023-04-24T12:43:34;2.00;;;1.05;;
51475;SDS011;37554;50.362;7.568;2023-04-24T12:46:00;1.23;;;0.90;;
51475;SDS011;37554;50.362;7.568;2023-04-24T12:48:28;1.05;;;1.00;;
51475;SDS011;37554;50.362;7.568;2023-04-24T12:50:54;1.33;;;1.17;;
51475;SDS011;37554;50.362;7.568;2023-04-24T12:53:21;2.17;;;0.95;;
51475;SDS011;37554;50.362;7.568;2023-04-24T12:55:47;1.17;;;1.05;;
51475;SDS011;37554;50.362;7.568;2023-04-24T12:58:18;2.55;;;1.13;;
51475;SDS011;37554;50.362;7.568;2023-04-24T13:00:45;2.97;;;1.30;;
51475;SDS011;37554;50.362;7.568;2023-04-24T13:03:11;1.63;;;1.02;;
51475;SDS011;37554;50.362;7.568;2023-04-24T13:05:37;1.90;;;1.15;;
51475;SDS011;37554;50.362;7.568;2023-04-24T13:08:02;2.03;;;0.85;;
51475;SDS011;37554;50.362;7.568;2023-04-24T13:10:28;2.05;;;1.30;;
51475;SDS011;37554;50.362;7.568;2023-04-24T13:12:54;1.38;;;1.20;;
51475;SDS011;37554;50.362;7.568;2023-04-24T13:15:20;1.65;;;1.10;;
51475;SDS011;37554;50.362;7.568;2023-04-24T13:17:45;1.92;;;1.20;;
51475;SDS011;37554;50.362;7.568;2023-04-24T13:20:11;2.30;;;1.50;;
51475;SDS011;37554;50.362;7.568;2023-04-24T13:22:37;1.65;;;1.05;;
51475;SDS011;37554;50.362;7.568;2023-04-24T13:25:02;3.13;;;1.30;;
51475;SDS011;37554;50.362;7.568;2023-04-24T13:27:30;1.10;;;1.00;;
51475;SDS011;37554;50.362;7.568;2023-04-24T13:29:56;1.88;;;1.50;;
51475;SDS011;37554;50.362;7.568;2023-04-24T13:32:22;1.88;;;1.25;;
51475;SDS011;37554;50.362;7.568;2023-04-24T13:34:47;2.97;;;1.60;;
51475;SDS011;37554;50.362;7.568;2023-04-24T13:37:13;2.65;;;1.30;;
51475;SDS011;37554;50.362;7.568;2023-04-24T13:39:39;1.90;;;1.48;;
51475;SDS011;37554;50.362;7.568;2023-04-24T13:42:06;2.30;;;1.48;;
51475;SDS011;37554;50.362;7.568;2023-04-24T13:44:31;2.10;;;1.30;;
51475;SDS011;37554;50.362;7.568;2023-04-24T13:46:57;2.58;;;1.52;;
51475;SDS011;37554;50.362;7.568;2023-04-24T13:49:24;1.60;;;1.30;;
51475;SDS011;37554;50.362;7.568;2023-04-24T13:51:52;1.42;;;1.20;;
51475;SDS011;37554;50.362;7.568;2023-04-24T13:54:18;2.10;;;1.30;;
51475;SDS011;37554;50.362;7.568;2023-04-24T13:56:44;2.20;;;1.20;;
51475;SDS011;37554;50.362;7.568;2023-04-24T13:59:11;2.15;;;1.20;;
51475;SDS011;37554;50.362;7.568;2023-04-24T14:01:40;1.60;;;1.35;;
51475;SDS011;37554;50.362;7.568;2023-04-24T14:04:05;1.83;;;1.00;;
51475;SDS011;37554;50.362;7.568;2023-04-24T14:06:31;2.45;;;1.10;;
51475;SDS011;37554;50.362;7.568;2023-04-24T14:08:57;1.90;;;1.10;;
51475;SDS011;37554;50.362;7.568;2023-04-24T14:11:22;3.03;;;1.20;;
51475;SDS011;37554;50.362;7.568;2023-04-24T14:13:48;2.50;;;1.40;;
51475;SDS011;37554;50.362;7.568;2023-04-24T14:16:14;1.23;;;1.02;;
51475;SDS011;37554;50.362;7.568;2023-04-24T14:18:40;2.13;;;1.15;;
51475;SDS011;37554;50.362;7.568;2023-04-24T14:21:06;2.28;;;1.10;;
51475;SDS011;37554;50.362;7.568;2023-04-24T14:23:32;1.77;;;1.05;;
51475;SDS011;37554;50.362;7.568;2023-04-24T14:25:58;1.77;;;1.08;;
51475;SDS011;37554;50.362;7.568;2023-04-24T14:28:24;2.83;;;1.13;;
51475;SDS011;37554;50.362;7.568;2023-04-24T14:30:51;2.10;;;1.10;;
51475;SDS011;37554;50.362;7.568;2023-04-24T14:33:17;1.60;;;1.23;;
51475;SDS011;37554;50.362;7.568;2023-04-24T14:35:43;3.20;;;1.10;;
51475;SDS011;37554;50.362;7.568;2023-04-24T14:38:09;2.58;;;1.38;;
51475;SDS011;37554;50.362;7.568;2023-04-24T14:40:34;1.45;;;0.98;;
51475;SDS011;37554;50.362;7.568;2023-04-24T14:43:00;1.40;;;1.10;;
51475;SDS011;37554;50.362;7.568;2023-04-24T14:45:26;1.90;;;0.90;;
51475;SDS011;37554;50.362;7.568;2023-04-24T14:47:52;2.38;;;1.30;;
51475;SDS011;37554;50.362;7.568;2023-04-24T14:50:18;1.45;;;1.20;;
51475;SDS011;37554;50.362;7.568;2023-04-24T14:52:44;1.20;;;1.02;;
51475;SDS011;37554;50.362;7.568;2023-04-24T14:55:10;2.50;;;1.45;;